Time;durP1;ratioP1;P1;durP2;ratioP2;P2;SDS_P1;SDS_P2;PMS_P1;PMS_P2;Temp;Humidity;BMP_temperature;BMP_pressure;BME280_temperature;BME280_humidity;BME280_pressure;Samples;Min_cycle;Max_cycle;Signal;HPM_P1;HPM_P2
2021/10/16 00:00:47;;;;;;;5.78;3.47;;;8.20;99.90;;;;;;5065370;28;20372;-69
2021/10/16 00:03:51;;;;;;;5.18;3.20;;;8.10;99.90;;;;;;5066826;28;20033;-69
2021/10/16 00:06:55;;;;;;;4.82;3.35;;;8.10;99.90;;;;;;5064815;28;20474;-69
2021/10/16 00:10:01;;;;;;;7.22;3.33;;;8.00;99.90;;;;;;5064094;28;20040;-68
2021/10/16 00:13:05;;;;;;;6.20;2.90;;;8.00;99.90;;;;;;5065478;28;20036;-68
2021/10/16 00:16:09;;;;;;;6.50;3.15;;;8.00;99.90;;;;;;5059891;28;20033;-69
2021/10/16 00:19:13;;;;;;;6.25;3.35;;;7.90;99.90;;;;;;5057622;28;20678;-69
2021/10/16 00:22:20;;;;;;;11.10;3.53;;;7.80;99.90;;;;;;5060204;28;20372;-69
2021/10/16 00:25:24;;;;;;;7.50;3.80;;;7.80;99.90;;;;;;5063785;28;20039;-69
2021/10/16 00:28:29;;;;;;;5.72;3.78;;;7.80;99.90;;;;;;5058080;28;20040;-69
2021/10/16 00:31:32;;;;;;;6.63;3.50;;;7.80;99.90;;;;;;5064655;28;20036;-69
2021/10/16 00:34:36;;;;;;;5.88;3.75;;;7.70;99.90;;;;;;5059667;28;20360;-69
2021/10/16 00:37:41;;;;;;;7.93;4.07;;;8.00;99.90;;;;;;5062513;28;20036;-70
2021/10/16 00:40:45;;;;;;;6.95;4.18;;;8.10;99.90;;;;;;5068562;28;20167;-69
2021/10/16 00:44:10;;;;;;;6.22;3.97;;;8.10;99.90;;;;;;5046011;28;20037;-69
2021/10/16 00:47:14;;;;;;;11.85;4.72;;;7.90;99.90;;;;;;5055714;28;20037;-69
2021/10/16 00:50:20;;;;;;;8.27;4.35;;;7.90;99.90;;;;;;5049178;28;20047;-69
2021/10/16 00:53:24;;;;;;;8.90;4.63;;;7.90;99.90;;;;;;5066506;28;20041;-70
2021/10/16 00:56:29;;;;;;;9.32;4.60;;;7.90;99.90;;;;;;5060395;28;20037;-69
2021/10/16 00:59:33;;;;;;;6.95;4.53;;;7.90;99.90;;;;;;5063380;28;20041;-69
2021/10/16 01:02:38;;;;;;;9.50;4.68;;;7.80;99.90;;;;;;5068724;28;20045;-69
2021/10/16 01:05:42;;;;;;;12.23;4.93;;;7.80;99.90;;;;;;5067928;28;20037;-69
2021/10/16 01:08:45;;;;;;;10.35;4.22;;;7.70;99.90;;;;;;5066556;28;20051;-69
2021/10/16 01:11:56;;;;;;;8.50;5.05;;;7.70;99.90;;;;;;5062085;28;20076;-70
2021/10/16 01:15:02;;;;;;;9.50;5.13;;;7.60;99.90;;;;;;5069075;28;20037;-69
2021/10/16 01:18:07;;;;;;;13.43;5.50;;;7.50;99.90;;;;;;5070590;28;20044;-69
2021/10/16 01:21:12;;;;;;;9.70;5.30;;;7.50;99.90;;;;;;5065361;28;20035;-70
2021/10/16 01:24:19;;;;;;;8.68;5.45;;;7.70;99.90;;;;;;5064837;28;20036;-69
2021/10/16 01:27:23;;;;;;;10.10;5.30;;;7.70;99.90;;;;;;5066984;28;20044;-69
2021/10/16 01:30:29;;;;;;;9.15;6.20;;;7.90;99.90;;;;;;5054208;28;20040;-69
2021/10/16 01:33:34;;;;;;;8.93;5.43;;;8.00;99.90;;;;;;5061214;28;20045;-69
2021/10/16 01:36:47;;;;;;;11.57;6.25;;;8.00;99.90;;;;;;5064706;28;20036;-69
2021/10/16 01:39:55;;;;;;;11.77;7.35;;;7.90;99.90;;;;;;5067235;28;20047;-69
2021/10/16 01:42:59;;;;;;;12.88;6.15;;;7.80;99.90;;;;;;5060961;28;20047;-69
2021/10/16 01:46:03;;;;;;;12.38;7.07;;;7.80;99.90;;;;;;5057289;28;20044;-70
2021/10/16 01:49:19;;;;;;;12.40;7.45;;;7.80;99.90;;;;;;5068150;28;20040;-70
2021/10/16 01:52:29;;;;;;;13.77;7.28;;;7.80;99.90;;;;;;5064038;28;20047;-70
2021/10/16 01:55:34;;;;;;;13.93;7.95;;;7.70;99.90;;;;;;5067337;28;20043;-69
2021/10/16 01:58:38;;;;;;;12.48;7.90;;;7.80;99.90;;;;;;5065697;28;20044;-70
2021/10/16 02:01:51;;;;;;;16.73;8.90;;;7.80;99.90;;;;;;5065696;28;20043;-69
2021/10/16 02:05:01;;;;;;;13.60;7.13;;;7.90;99.90;;;;;;5064237;28;20040;-69
2021/10/16 02:08:05;;;;;;;14.48;7.78;;;7.90;99.90;;;;;;5057866;28;20494;-69
2021/10/16 02:11:11;;;;;;;17.90;8.07;;;8.00;99.90;;;;;;5053612;28;20040;-69
2021/10/16 02:14:25;;;;;;;14.50;7.40;;;8.10;99.90;;;;;;5058406;28;20052;-69
2021/10/16 02:17:33;;;;;;;13.10;7.25;;;8.20;99.90;;;;;;5065303;28;20059;-69
2021/10/16 02:20:37;;;;;;;16.60;8.63;;;8.20;99.90;;;;;;5065826;28;20040;-69
2021/10/16 02:23:43;;;;;;;13.20;7.07;;;8.20;99.90;;;;;;5060880;28;20056;-69
2021/10/16 02:26:49;;;;;;;12.93;7.63;;;8.30;99.90;;;;;;5061025;28;20375;-69
2021/10/16 02:29:57;;;;;;;12.57;6.50;;;8.30;99.90;;;;;;5064667;28;20039;-69
2021/10/16 02:33:02;;;;;;;15.93;6.28;;;8.00;99.90;;;;;;5069693;28;20051;-69
2021/10/16 02:36:08;;;;;;;12.95;7.55;;;7.80;99.90;;;;;;5050685;28;20498;-69
2021/10/16 02:39:13;;;;;;;14.18;7.47;;;7.70;99.90;;;;;;5054245;28;20040;-69
2021/10/16 02:42:17;;;;;;;10.45;6.18;;;7.60;99.90;;;;;;5065460;28;20131;-69
2021/10/16 02:45:20;;;;;;;11.40;6.35;;;7.40;99.90;;;;;;5059134;28;20051;-69
2021/10/16 02:48:25;;;;;;;10.57;6.18;;;7.40;99.90;;;;;;5061945;28;20382;-69
2021/10/16 02:51:29;;;;;;;11.27;6.95;;;7.40;99.90;;;;;;5059912;28;20052;-69
2021/10/16 02:54:33;;;;;;;10.23;5.75;;;7.40;99.90;;;;;;5064292;28;20060;-69
2021/10/16 02:57:38;;;;;;;10.57;6.20;;;7.30;99.90;;;;;;5056242;28;20056;-69
2021/10/16 03:00:42;;;;;;;9.90;6.85;;;7.40;99.90;;;;;;5065773;28;20048;-69
2021/10/16 03:03:46;;;;;;;12.25;6.90;;;7.30;99.90;;;;;;5066824;28;20044;-69
2021/10/16 03:06:51;;;;;;;10.55;6.25;;;7.30;99.90;;;;;;5050044;28;20056;-69
2021/10/16 03:09:56;;;;;;;11.38;6.53;;;7.30;99.90;;;;;;5058549;28;20048;-69
2021/10/16 03:13:00;;;;;;;16.10;7.38;;;7.30;99.90;;;;;;5068075;28;20035;-69
2021/10/16 03:16:05;;;;;;;9.93;6.47;;;7.30;99.90;;;;;;5059624;28;20588;-69
2021/10/16 03:19:09;;;;;;;10.98;6.72;;;7.20;99.90;;;;;;5062466;28;20041;-70
2021/10/16 03:22:14;;;;;;;13.18;7.00;;;7.30;99.90;;;;;;5065974;28;20141;-69
2021/10/16 03:25:18;;;;;;;11.10;6.05;;;7.20;99.90;;;;;;5064643;28;20086;-69
2021/10/16 03:28:22;;;;;;;12.32;5.88;;;7.40;99.90;;;;;;5061896;28;20044;-69
2021/10/16 03:31:26;;;;;;;11.20;6.22;;;7.60;99.90;;;;;;5058801;28;20044;-70
2021/10/16 03:34:30;;;;;;;10.18;7.13;;;7.60;99.90;;;;;;5059533;28;20036;-69
2021/10/16 03:37:35;;;;;;;14.57;6.22;;;7.50;99.90;;;;;;5050961;28;20043;-70
2021/10/16 03:40:39;;;;;;;9.75;6.13;;;7.50;99.90;;;;;;5064948;28;20043;-69
2021/10/16 03:43:44;;;;;;;9.63;5.80;;;7.40;99.90;;;;;;5054972;28;20084;-69
2021/10/16 03:46:49;;;;;;;12.20;6.15;;;7.50;99.90;;;;;;5060098;28;20032;-69
2021/10/16 03:49:56;;;;;;;12.48;6.70;;;7.50;99.90;;;;;;5061841;28;20055;-69
2021/10/16 03:53:02;;;;;;;11.52;6.25;;;7.40;99.90;;;;;;5061063;28;20489;-69
2021/10/16 03:56:06;;;;;;;10.68;6.55;;;7.20;99.90;;;;;;5060236;28;20060;-69
2021/10/16 03:59:10;;;;;;;11.80;6.57;;;7.10;99.90;;;;;;5064279;28;20044;-69
2021/10/16 04:02:17;;;;;;;16.63;7.35;;;7.10;99.90;;;;;;5056791;28;20037;-69
2021/10/16 04:05:21;;;;;;;12.20;6.30;;;6.90;99.90;;;;;;5057505;28;20040;-69
2021/10/16 04:08:26;;;;;;;13.18;6.22;;;6.90;99.90;;;;;;5063162;28;20490;-69
2021/10/16 04:11:30;;;;;;;10.43;5.90;;;6.90;99.90;;;;;;5067784;28;20044;-69
2021/10/16 04:14:35;;;;;;;15.23;7.10;;;6.80;99.90;;;;;;5063783;28;20379;-69
2021/10/16 04:17:40;;;;;;;15.38;6.97;;;6.60;99.90;;;;;;5054476;28;20056;-69
2021/10/16 04:20:44;;;;;;;13.73;7.03;;;6.40;99.90;;;;;;5065108;28;20055;-70
2021/10/16 04:23:48;;;;;;;14.20;6.22;;;6.40;99.90;;;;;;5061841;28;20048;-69
2021/10/16 04:26:52;;;;;;;11.65;6.03;;;6.50;99.90;;;;;;5059499;28;20130;-69
2021/10/16 04:30:01;;;;;;;10.65;6.03;;;6.60;99.90;;;;;;5054850;28;20052;-69
2021/10/16 04:33:11;;;;;;;13.32;6.28;;;6.70;99.90;;;;;;5061622;28;20051;-69
2021/10/16 04:36:16;;;;;;;13.70;6.88;;;6.60;99.90;;;;;;5063303;28;20044;-69
2021/10/16 04:39:20;;;;;;;9.85;6.25;;;6.50;99.90;;;;;;5064159;28;20047;-69
2021/10/16 04:42:25;;;;;;;10.80;6.22;;;6.40;99.90;;;;;;5068344;28;20036;-69
2021/10/16 04:45:29;;;;;;;10.82;6.47;;;6.30;99.90;;;;;;5064885;28;20039;-69
2021/10/16 04:48:39;;;;;;;13.50;6.38;;;6.40;99.90;;;;;;5063751;28;20043;-69
2021/10/16 04:51:44;;;;;;;12.25;5.80;;;6.40;99.90;;;;;;5068243;28;20063;-69
2021/10/16 04:54:55;;;;;;;10.52;5.18;;;6.40;99.90;;;;;;5063751;28;20039;-69
2021/10/16 04:57:59;;;;;;;10.25;5.40;;;6.30;99.90;;;;;;5068432;28;20052;-69
2021/10/16 05:01:14;;;;;;;11.55;5.50;;;6.30;99.90;;;;;;5058928;28;20059;-69
2021/10/16 05:04:20;;;;;;;8.90;5.50;;;6.30;99.90;;;;;;5065625;28;20039;-69
2021/10/16 05:07:25;;;;;;;14.30;6.40;;;6.30;99.90;;;;;;5061675;28;20041;-69
2021/10/16 05:10:30;;;;;;;14.38;5.70;;;6.50;99.90;;;;;;5066669;28;20478;-69
2021/10/16 05:13:34;;;;;;;13.13;5.35;;;6.60;99.90;;;;;;5070112;28;20043;-69
2021/10/16 05:16:38;;;;;;;11.05;5.50;;;6.50;99.90;;;;;;5068739;28;20403;-69
2021/10/16 05:19:43;;;;;;;9.38;5.38;;;6.60;99.90;;;;;;5060186;28;20399;-69
2021/10/16 05:22:50;;;;;;;12.57;6.75;;;6.60;99.90;;;;;;5061826;28;20041;-69
2021/10/16 05:25:54;;;;;;;11.90;5.65;;;6.60;99.90;;;;;;5062185;28;20388;-69
2021/10/16 05:29:02;;;;;;;11.25;5.35;;;6.60;99.90;;;;;;5068212;28;20398;-68
2021/10/16 05:32:06;;;;;;;9.60;5.80;;;6.30;99.90;;;;;;5066612;28;20048;-69
2021/10/16 05:35:10;;;;;;;9.48;5.95;;;6.00;99.90;;;;;;5064873;28;20483;-68
2021/10/16 05:38:14;;;;;;;15.85;5.60;;;6.00;99.90;;;;;;5059641;28;20029;-68
2021/10/16 05:41:19;;;;;;;11.48;6.45;;;6.00;99.90;;;;;;5071426;28;20055;-68
2021/10/16 05:44:27;;;;;;;14.48;6.25;;;6.10;99.90;;;;;;5061121;28;20056;-68
2021/10/16 05:47:32;;;;;;;12.02;5.88;;;6.00;99.90;;;;;;5065421;28;20051;-68
2021/10/16 05:50:38;;;;;;;14.00;5.85;;;6.00;99.90;;;;;;5065904;28;20051;-69
2021/10/16 05:53:45;;;;;;;17.00;6.72;;;6.10;99.90;;;;;;5068679;28;20055;-68
2021/10/16 05:56:49;;;;;;;16.10;6.80;;;6.20;99.90;;;;;;5065104;28;20043;-69
2021/10/16 05:59:53;;;;;;;16.00;6.32;;;5.90;99.90;;;;;;5064646;28;20035;-69
2021/10/16 06:02:59;;;;;;;12.48;6.40;;;5.90;99.90;;;;;;5066106;28;20048;-69
2021/10/16 06:06:13;;;;;;;11.27;6.10;;;5.90;99.90;;;;;;5069454;28;20036;-69
2021/10/16 06:09:17;;;;;;;13.68;6.65;;;6.10;99.90;;;;;;5061319;28;20044;-69
2021/10/16 06:12:21;;;;;;;11.98;5.40;;;6.70;99.90;;;;;;5065555;28;20418;-69
2021/10/16 06:15:26;;;;;;;19.95;7.07;;;9.70;99.90;;;;;;5062629;28;20044;-69
2021/10/16 06:18:30;;;;;;;9.30;4.97;;;12.20;99.90;;;;;;5060762;28;20040;-69
2021/10/16 06:21:34;;;;;;;10.40;5.03;;;14.50;99.50;;;;;;5065198;28;20044;-70
2021/10/16 06:24:38;;;;;;;11.25;4.90;;;15.90;95.50;;;;;;5065753;28;20051;-70
2021/10/16 06:27:43;;;;;;;14.55;5.20;;;15.80;94.30;;;;;;5065226;28;20044;-70
2021/10/16 06:30:47;;;;;;;10.20;5.45;;;16.10;92.50;;;;;;5058391;28;20047;-70
2021/10/16 06:33:51;;;;;;;18.85;8.50;;;18.20;92.30;;;;;;5061301;28;20055;-70
2021/10/16 06:36:55;;;;;;;16.90;9.65;;;18.50;87.40;;;;;;5058786;28;20040;-70
2021/10/16 06:40:00;;;;;;;16.48;10.02;;;19.70;87.60;;;;;;5053185;28;20131;-70
2021/10/16 06:43:04;;;;;;;14.02;6.22;;;20.30;82.70;;;;;;5070580;28;20051;-70
2021/10/16 06:46:35;;;;;;;8.75;5.80;;;21.00;82.10;;;;;;5059294;28;20047;-70
2021/10/16 06:49:51;;;;;;;8.30;4.97;;;21.80;78.10;;;;;;5065543;28;20122;-70
2021/10/16 06:52:55;;;;;;;10.75;7.30;;;22.20;78.10;;;;;;5069023;28;20089;-70
2021/10/16 06:55:59;;;;;;;10.70;6.90;;;22.80;77.10;;;;;;5056950;28;20040;-70
2021/10/16 06:59:03;;;;;;;16.75;7.07;;;23.70;73.50;;;;;;5065297;28;20116;-70
2021/10/16 07:02:07;;;;;;;16.45;5.90;;;22.60;75.30;;;;;;5068056;28;20039;-70
2021/10/16 07:05:22;;;;;;;10.45;5.90;;;23.40;73.70;;;;;;5060962;28;20069;-70
2021/10/16 07:08:29;;;;;;;22.23;14.93;;;23.30;72.10;;;;;;5058776;28;20043;-70
2021/10/16 07:11:33;;;;;;;57.63;39.50;;;20.80;76.60;;;;;;5061549;28;20055;-70
2021/10/16 07:14:37;;;;;;;23.98;17.02;;;22.10;74.90;;;;;;5060075;28;20043;-70
2021/10/16 07:17:45;;;;;;;52.83;35.45;;;22.10;73.60;;;;;;5062000;28;20047;-70
2021/10/16 07:20:49;;;;;;;33.47;23.05;;;23.30;72.90;;;;;;5062020;28;20040;-71
2021/10/16 07:23:53;;;;;;;86.22;56.25;;;24.40;69.90;;;;;;5058069;28;20048;-70
2021/10/16 07:26:57;;;;;;;35.03;23.52;;;23.40;71.60;;;;;;5057920;28;20043;-71
2021/10/16 07:30:01;;;;;;;59.40;42.45;;;24.50;68.10;;;;;;5065044;28;20071;-70
2021/10/16 07:33:05;;;;;;;41.65;27.80;;;24.20;67.10;;;;;;5067543;28;20048;-71
2021/10/16 07:36:09;;;;;;;17.42;11.88;;;25.30;67.50;;;;;;5065786;28;20036;-71
2021/10/16 07:39:14;;;;;;;10.48;7.18;;;25.80;67.20;;;;;;5063588;28;20518;-71
2021/10/16 07:42:18;;;;;;;16.50;12.77;;;26.50;65.60;;;;;;5069229;28;20044;-70
2021/10/16 07:45:23;;;;;;;9.52;5.80;;;25.60;64.90;;;;;;5060818;28;20596;-71
2021/10/16 07:48:28;;;;;;;11.18;5.70;;;25.40;65.70;;;;;;5052129;28;20383;-71
2021/10/16 07:51:32;;;;;;;25.48;7.18;;;23.70;67.30;;;;;;5059666;28;20063;-70
2021/10/16 07:54:36;;;;;;;9.00;6.03;;;24.30;67.80;;;;;;5055553;28;20051;-71
2021/10/16 07:57:40;;;;;;;11.50;8.02;;;25.80;66.40;;;;;;5059044;28;20044;-71
2021/10/16 08:00:44;;;;;;;12.02;7.65;;;23.00;68.00;;;;;;5061356;28;20055;-71
2021/10/16 08:03:48;;;;;;;12.45;8.07;;;25.70;67.20;;;;;;5067135;28;20857;-71
2021/10/16 08:06:52;;;;;;;18.13;9.65;;;25.30;64.50;;;;;;5065150;28;20786;-71
2021/10/16 08:09:57;;;;;;;18.85;13.65;;;25.10;65.80;;;;;;5063256;28;20047;-71
2021/10/16 08:13:01;;;;;;;20.73;13.85;;;22.70;68.00;;;;;;5066354;28;20052;-71
2021/10/16 08:16:05;;;;;;;20.95;13.52;;;23.70;68.00;;;;;;5066460;28;20036;-71
2021/10/16 08:19:09;;;;;;;16.48;10.60;;;26.60;65.60;;;;;;5057155;28;20043;-71
2021/10/16 08:22:15;;;;;;;24.17;15.90;;;25.80;64.10;;;;;;5065773;28;20383;-71
2021/10/16 08:25:20;;;;;;;19.15;11.90;;;24.30;65.40;;;;;;5065148;28;20047;-71
2021/10/16 08:28:24;;;;;;;14.52;9.23;;;25.90;64.40;;;;;;5061592;28;20047;-72
2021/10/16 08:31:29;;;;;;;17.42;10.82;;;28.60;62.50;;;;;;5065437;28;20056;-72
2021/10/16 08:34:33;;;;;;;25.05;13.02;;;28.00;60.80;;;;;;5065678;28;20478;-71
2021/10/16 08:37:37;;;;;;;20.65;10.93;;;25.40;64.40;;;;;;5065342;28;20051;-71
2021/10/16 08:40:45;;;;;;;13.57;9.02;;;28.10;62.30;;;;;;5066176;28;20051;-72
2021/10/16 08:43:49;;;;;;;16.42;9.40;;;29.60;60.30;;;;;;5065142;28;20048;-71
2021/10/16 08:46:58;;;;;;;17.30;10.85;;;28.90;60.00;;;;;;5062297;28;20055;-71
2021/10/16 08:50:11;;;;;;;14.63;8.40;;;27.70;59.80;;;;;;5068429;28;20056;-71
2021/10/16 08:53:15;;;;;;;11.65;8.02;;;28.60;61.50;;;;;;5054467;28;20071;-71
2021/10/16 08:56:22;;;;;;;17.25;8.35;;;27.80;61.80;;;;;;5055506;28;20051;-71
2021/10/16 08:59:26;;;;;;;13.35;7.72;;;30.20;59.60;;;;;;5056305;28;20047;-71
2021/10/16 09:02:37;;;;;;;10.82;7.10;;;31.60;58.70;;;;;;5058082;28;20052;-71
2021/10/16 09:05:41;;;;;;;12.23;7.20;;;32.00;56.50;;;;;;5057310;28;20052;-71
2021/10/16 09:08:52;;;;;;;11.68;7.82;;;29.10;59.60;;;;;;5062750;28;20040;-71
2021/10/16 09:11:57;;;;;;;14.50;7.68;;;32.10;58.20;;;;;;5062658;28;20040;-71
2021/10/16 09:15:01;;;;;;;13.25;7.35;;;30.70;57.40;;;;;;5064494;28;20494;-71
2021/10/16 09:18:06;;;;;;;15.25;10.65;;;29.50;59.60;;;;;;5060097;28;20040;-71
2021/10/16 09:21:22;;;;;;;11.63;8.23;;;28.10;60.50;;;;;;5059353;28;20048;-71
2021/10/16 09:24:28;;;;;;;13.32;8.65;;;30.70;59.00;;;;;;5067486;28;20067;-71
2021/10/16 09:27:31;;;;;;;12.25;8.52;;;32.30;57.60;;;;;;5065037;28;20039;-71
2021/10/16 09:30:46;;;;;;;17.85;11.88;;;32.00;56.00;;;;;;5061616;28;20044;-71
2021/10/16 09:33:50;;;;;;;19.48;14.75;;;33.60;55.90;;;;;;5067867;28;20064;-71
2021/10/16 09:37:03;;;;;;;12.63;7.70;;;34.50;54.70;;;;;;5063177;28;20502;-71
2021/10/16 09:40:08;;;;;;;14.23;7.90;;;35.10;54.30;;;;;;5058526;28;20043;-71
2021/10/16 09:43:23;;;;;;;11.05;8.00;;;36.20;53.40;;;;;;5068399;28;20076;-71
2021/10/16 09:46:27;;;;;;;10.52;7.07;;;34.10;53.60;;;;;;5060939;28;20503;-71
2021/10/16 09:49:43;;;;;;;18.30;7.95;;;32.80;53.70;;;;;;5064486;28;20039;-71
2021/10/16 09:52:52;;;;;;;9.38;6.82;;;31.70;54.40;;;;;;5063080;28;20039;-71
2021/10/16 09:55:57;;;;;;;11.80;7.18;;;31.80;57.00;;;;;;5070003;28;20040;-71
2021/10/16 09:59:02;;;;;;;13.45;8.02;;;30.00;55.10;;;;;;5057730;28;20032;-71
2021/10/16 10:02:08;;;;;;;14.13;7.72;;;31.00;55.20;;;;;;5068747;28;20654;-71
2021/10/16 10:05:13;;;;;;;14.55;8.32;;;32.20;55.90;;;;;;5055883;28;20419;-71
2021/10/16 10:08:21;;;;;;;12.25;7.38;;;31.10;56.50;;;;;;5068371;28;20490;-71
2021/10/16 10:11:25;;;;;;;9.43;7.10;;;32.60;56.00;;;;;;5060284;28;20530;-71
2021/10/16 10:14:30;;;;;;;9.65;6.20;;;31.50;54.30;;;;;;5065562;28;20478;-71
2021/10/16 10:17:35;;;;;;;7.40;4.57;;;30.10;54.30;;;;;;5063840;28;20051;-71
2021/10/16 10:20:39;;;;;;;5.63;3.97;;;29.30;58.20;;;;;;5057031;28;20051;-71
2021/10/16 10:23:57;;;;;;;7.25;4.57;;;31.20;54.90;;;;;;5063886;28;20048;-69
2021/10/16 10:27:09;;;;;;;4.95;3.70;;;31.00;54.70;;;;;;5069393;28;20051;-71
2021/10/16 10:30:42;;;;;;;4.45;3.10;;;30.80;55.90;;;;;;5061048;28;20063;-71
2021/10/16 10:34:02;;;;;;;4.82;3.20;;;30.30;55.30;;;;;;5060578;28;20040;-69
2021/10/16 10:37:10;;;;;;;2.47;2.17;;;28.80;55.20;;;;;;5061846;28;20044;-70
2021/10/16 10:40:18;;;;;;;4.90;2.40;;;30.50;55.40;;;;;;5066810;28;20278;-69
2021/10/16 10:43:40;;;;;;;3.58;2.17;;;31.70;55.40;;;;;;5059583;28;20040;-71
2021/10/16 10:46:45;;;;;;;3.15;2.20;;;32.50;53.70;;;;;;5065923;28;20064;-71
2021/10/16 10:49:51;;;;;;;3.45;2.20;;;34.60;52.20;;;;;;5058861;28;20036;-71
2021/10/16 10:53:02;;;;;;;3.60;2.20;;;37.10;50.30;;;;;;5063559;28;20048;-71
2021/10/16 10:56:14;;;;;;;5.13;2.30;;;37.70;49.00;;;;;;5061586;28;20376;-72
2021/10/16 10:59:19;;;;;;;3.85;1.98;;;37.70;48.80;;;;;;5052402;28;20419;-71
2021/10/16 11:02:30;;;;;;;5.10;2.85;;;37.80;48.70;;;;;;5065708;28;20055;-71
2021/10/16 11:05:35;;;;;;;4.47;2.80;;;37.50;48.20;;;;;;5065261;28;20411;-72
2021/10/16 11:08:39;;;;;;;3.97;2.92;;;38.10;48.20;;;;;;5065056;28;20391;-71
2021/10/16 11:11:46;;;;;;;4.65;2.95;;;38.50;47.80;;;;;;5061052;28;20055;-72
2021/10/16 11:14:50;;;;;;;4.75;2.50;;;38.20;47.80;;;;;;5059401;28;20048;-69
2021/10/16 11:17:54;;;;;;;2.95;2.45;;;38.50;47.50;;;;;;5060872;28;20039;-69
2021/10/16 11:21:04;;;;;;;3.90;2.90;;;39.10;47.10;;;;;;5064917;28;20036;-72
2021/10/16 11:24:09;;;;;;;4.05;3.05;;;39.50;46.50;;;;;;5062317;28;20040;-70
2021/10/16 11:27:20;;;;;;;6.82;2.95;;;39.30;46.00;;;;;;5063835;28;20048;-71
2021/10/16 11:30:24;;;;;;;3.70;2.72;;;38.10;46.80;;;;;;5062350;28;20475;-72
2021/10/16 11:33:31;;;;;;;3.22;2.20;;;37.80;47.30;;;;;;5065053;28;20063;-72
2021/10/16 11:36:46;;;;;;;2.85;2.40;;;38.10;47.00;;;;;;5062480;28;20047;-72
2021/10/16 11:40:04;;;;;;;2.85;1.92;;;38.50;46.50;;;;;;5068319;28;20060;-73
2021/10/16 11:43:10;;;;;;;3.00;1.90;;;39.10;46.00;;;;;;5067545;28;20047;-72
2021/10/16 11:46:17;;;;;;;2.33;1.90;;;39.50;46.10;;;;;;5058594;28;20059;-72
2021/10/16 11:49:22;;;;;;;2.97;2.00;;;40.10;45.80;;;;;;5066535;28;20044;-72
2021/10/16 11:52:26;;;;;;;3.42;2.20;;;39.20;45.80;;;;;;5059513;28;20044;-73
2021/10/16 11:55:31;;;;;;;4.38;2.55;;;38.50;46.00;;;;;;5066805;28;20051;-72
2021/10/16 11:58:36;;;;;;;2.88;2.20;;;38.40;46.10;;;;;;5059191;28;20040;-73
2021/10/16 12:01:44;;;;;;;4.90;2.53;;;38.50;46.30;;;;;;5065213;28;20395;-71
2021/10/16 12:05:12;;;;;;;2.45;2.25;;;37.70;46.20;;;;;;5061408;28;20044;-72
2021/10/16 12:08:18;;;;;;;3.38;2.17;;;37.20;46.80;;;;;;5064824;28;20639;-72
2021/10/16 12:11:32;;;;;;;2.88;2.13;;;37.40;46.70;;;;;;5061564;28;20036;-72
2021/10/16 12:14:36;;;;;;;3.42;2.63;;;37.40;46.50;;;;;;5065491;28;20039;-74
2021/10/16 12:17:43;;;;;;;3.17;1.88;;;37.40;46.60;;;;;;5056711;28;20490;-72
2021/10/16 12:20:51;;;;;;;3.10;2.40;;;37.70;46.70;;;;;;5058730;28;20044;-72
2021/10/16 12:23:56;;;;;;;3.58;1.90;;;37.50;46.50;;;;;;5066148;28;20052;-72
2021/10/16 12:27:29;;;;;;;2.30;1.80;;;37.10;47.10;;;;;;5057666;28;20035;-72
2021/10/16 12:30:33;;;;;;;2.53;2.00;;;36.40;47.30;;;;;;5059479;28;20043;-73
2021/10/16 12:34:02;;;;;;;3.97;1.85;;;37.00;47.10;;;;;;5062781;28;20039;-71
2021/10/16 12:37:11;;;;;;;5.05;1.95;;;37.20;47.10;;;;;;5065005;28;20048;-71
2021/10/16 12:40:15;;;;;;;4.38;1.63;;;36.30;47.20;;;;;;5061735;28;20052;-72
2021/10/16 12:43:24;;;;;;;2.85;1.65;;;36.40;47.40;;;;;;5061299;28;20046;-72
2021/10/16 12:46:29;;;;;;;1.83;1.30;;;36.60;46.90;;;;;;5063987;28;20043;-73
2021/10/16 12:49:40;;;;;;;1.63;1.20;;;37.20;46.70;;;;;;5057382;28;20047;-72
2021/10/16 12:52:46;;;;;;;3.65;1.70;;;37.10;46.20;;;;;;5063714;28;20043;-72
2021/10/16 12:55:50;;;;;;;2.72;1.38;;;37.30;46.80;;;;;;5058786;28;20036;-72
2021/10/16 12:58:54;;;;;;;3.10;1.60;;;36.70;46.40;;;;;;5062545;28;20044;-72
2021/10/16 13:01:58;;;;;;;5.05;1.25;;;36.80;47.00;;;;;;5065079;28;20048;-72
2021/10/16 13:05:02;;;;;;;2.20;1.20;;;36.70;46.20;;;;;;5067146;28;20043;-72
2021/10/16 13:08:09;;;;;;;4.70;2.08;;;36.20;45.10;;;;;;5070354;28;20051;-72
2021/10/16 13:11:15;;;;;;;3.08;1.60;;;35.80;47.50;;;;;;5059011;28;20051;-70
2021/10/16 13:14:19;;;;;;;3.17;1.27;;;35.30;48.00;;;;;;5061388;28;20048;-71
2021/10/16 13:17:23;;;;;;;5.32;1.60;;;35.10;48.50;;;;;;5067261;28;20115;-72
2021/10/16 13:20:27;;;;;;;1.98;1.48;;;34.40;49.10;;;;;;5060488;28;20048;-71
2021/10/16 13:23:31;;;;;;;2.97;1.65;;;34.20;48.80;;;;;;5068166;28;20039;-71
2021/10/16 13:26:35;;;;;;;4.78;1.98;;;33.90;49.00;;;;;;5068711;28;20047;-71
2021/10/16 13:29:39;;;;;;;2.88;1.58;;;33.50;49.50;;;;;;5066829;28;20486;-72
2021/10/16 13:32:45;;;;;;;4.15;1.58;;;33.20;49.10;;;;;;5068224;28;20410;-72
2021/10/16 13:35:49;;;;;;;4.85;1.70;;;33.70;48.80;;;;;;5068958;28;20040;-70
2021/10/16 13:38:53;;;;;;;2.88;1.67;;;33.40;48.70;;;;;;5064548;28;20047;-74
2021/10/16 13:41:58;;;;;;;3.13;2.22;;;32.30;50.20;;;;;;5062406;28;20056;-72
2021/10/16 13:45:08;;;;;;;2.78;1.55;;;32.30;50.40;;;;;;5064196;28;20055;-71
2021/10/16 13:48:13;;;;;;;5.03;1.70;;;32.00;50.50;;;;;;5060688;28;20044;-74
2021/10/16 13:51:17;;;;;;;2.50;1.88;;;31.20;51.20;;;;;;5064190;28;20047;-73
2021/10/16 13:54:21;;;;;;;4.85;1.70;;;31.20;51.20;;;;;;5064601;28;20048;-73
2021/10/16 13:57:25;;;;;;;1.75;1.33;;;30.80;52.00;;;;;;5063750;28;20055;-73
2021/10/16 14:00:29;;;;;;;3.42;1.52;;;31.00;51.90;;;;;;5057370;28;20044;-72
2021/10/16 14:03:33;;;;;;;4.95;1.60;;;30.60;51.40;;;;;;5063966;28;20060;-73
2021/10/16 14:06:37;;;;;;;4.63;1.40;;;30.00;51.50;;;;;;5069073;28;20059;-72
2021/10/16 14:09:41;;;;;;;3.88;1.77;;;29.40;52.10;;;;;;5059484;28;20510;-72
2021/10/16 14:12:46;;;;;;;11.13;3.22;;;29.40;52.70;;;;;;5060491;28;20044;-73
2021/10/16 14:15:51;;;;;;;5.28;2.28;;;29.40;52.70;;;;;;5062060;28;20492;-73
2021/10/16 14:18:58;;;;;;;3.10;1.75;;;29.70;52.20;;;;;;5065407;28;20044;-72
2021/10/16 14:22:03;;;;;;;4.95;1.60;;;29.80;52.20;;;;;;5058393;28;20052;-72
2021/10/16 14:25:08;;;;;;;2.42;1.33;;;30.00;52.10;;;;;;5065706;28;20392;-72
2021/10/16 14:28:13;;;;;;;2.83;1.35;;;30.20;52.20;;;;;;5062992;28;20486;-73
2021/10/16 14:31:18;;;;;;;2.33;1.50;;;30.00;52.50;;;;;;5050835;28;20047;-72
2021/10/16 14:34:21;;;;;;;1.83;1.50;;;30.00;52.70;;;;;;5065536;28;20044;-72
2021/10/16 14:37:25;;;;;;;4.47;2.30;;;29.20;52.60;;;;;;5064709;28;20048;-72
2021/10/16 14:40:30;;;;;;;1.73;1.25;;;28.90;53.10;;;;;;5058841;28;20047;-72
2021/10/16 14:43:34;;;;;;;3.33;1.65;;;29.10;53.10;;;;;;5063780;28;20510;-71
2021/10/16 14:46:38;;;;;;;4.95;1.30;;;29.00;53.50;;;;;;5070994;28;20450;-72
2021/10/16 14:49:42;;;;;;;6.50;1.95;;;28.60;53.40;;;;;;5061082;28;20040;-71
2021/10/16 14:52:47;;;;;;;4.68;1.50;;;28.20;53.90;;;;;;5062871;28;20047;-73
2021/10/16 14:55:51;;;;;;;2.92;1.38;;;28.10;53.60;;;;;;5060489;28;20044;-72
2021/10/16 14:58:55;;;;;;;5.78;1.70;;;28.00;53.90;;;;;;5058805;28;20048;-71
2021/10/16 15:01:59;;;;;;;2.45;1.35;;;27.40;54.60;;;;;;5065760;28;20067;-72
2021/10/16 15:05:03;;;;;;;2.20;1.45;;;27.00;54.80;;;;;;5066151;28;20486;-71
2021/10/16 15:08:07;;;;;;;2.70;1.52;;;26.90;55.30;;;;;;5067540;28;20379;-72
2021/10/16 15:11:11;;;;;;;3.03;1.83;;;26.50;55.80;;;;;;5067690;28;20039;-71
2021/10/16 15:14:15;;;;;;;2.13;1.55;;;26.50;56.00;;;;;;5062584;28;20060;-72
2021/10/16 15:17:19;;;;;;;2.17;1.63;;;26.10;56.00;;;;;;5064499;28;20039;-73
2021/10/16 15:20:23;;;;;;;3.97;1.88;;;25.60;56.70;;;;;;5058273;28;20383;-72
2021/10/16 15:23:27;;;;;;;4.35;2.35;;;25.10;57.30;;;;;;5058770;28;20044;-72
2021/10/16 15:26:32;;;;;;;3.47;1.95;;;24.80;57.90;;;;;;5059243;28;20039;-72
2021/10/16 15:29:37;;;;;;;3.78;1.73;;;24.00;59.00;;;;;;5065673;28;20411;-72
2021/10/16 15:32:41;;;;;;;3.53;2.08;;;23.40;59.80;;;;;;5060177;28;20052;-71
2021/10/16 15:35:46;;;;;;;2.20;1.70;;;23.00;60.30;;;;;;5059623;28;20047;-71
2021/10/16 15:38:50;;;;;;;5.53;2.50;;;22.50;61.40;;;;;;5051765;28;20052;-72
2021/10/16 15:41:54;;;;;;;4.30;2.63;;;22.40;62.10;;;;;;5066988;28;20056;-70
2021/10/16 15:44:58;;;;;;;11.95;2.42;;;22.20;62.30;;;;;;5061042;28;20051;-72
2021/10/16 15:48:02;;;;;;;13.18;3.15;;;22.10;63.10;;;;;;5067229;28;20494;-71
2021/10/16 15:51:12;;;;;;;6.40;2.88;;;21.60;63.60;;;;;;5059503;28;20490;-71
2021/10/16 15:54:17;;;;;;;4.95;2.20;;;21.30;64.40;;;;;;5063150;28;20051;-70
2021/10/16 15:57:21;;;;;;;3.92;2.30;;;20.80;65.50;;;;;;5064472;28;20052;-71
2021/10/16 16:00:26;;;;;;;3.67;2.60;;;20.30;66.60;;;;;;5069317;28;20059;-71
2021/10/16 16:03:30;;;;;;;14.38;3.42;;;19.90;67.70;;;;;;5061302;28;20060;-72
2021/10/16 16:06:34;;;;;;;6.90;3.08;;;19.40;69.00;;;;;;5063086;28;20399;-71